Time;durP1;ratioP1;P1;durP2;ratioP2;P2;SDS_P1;SDS_P2;PMS_P1;PMS_P2;Temp;Humidity;BMP_temperature;BMP_pressure;BME280_temperature;BME280_humidity;BME280_pressure;Samples;Min_cycle;Max_cycle;Signal;HPM_P1;HPM_P2
2022/10/11 00:01:37;;;;;;;0.20;0.20;;;20.90;62.70;;;;;;4957666;28;20050;-53
2022/10/11 00:04:03;;;;;;;0.73;0.52;;;21.00;62.60;;;;;;4956511;28;20046;-58
2022/10/11 00:06:28;;;;;;;0.30;0.30;;;20.90;62.50;;;;;;4955295;28;20094;-44
2022/10/11 00:08:54;;;;;;;0.30;0.20;;;20.90;62.60;;;;;;4957990;28;20043;-61
2022/10/11 00:11:20;;;;;;;0.20;0.20;;;20.90;62.70;;;;;;4958841;28;20104;-62
2022/10/11 00:13:45;;;;;;;0.30;0.30;;;20.90;62.80;;;;;;4957174;28;20591;-56
2022/10/11 00:16:11;;;;;;;0.15;0.15;;;20.90;62.70;;;;;;4957068;28;20425;-58
2022/10/11 00:18:37;;;;;;;0.20;0.20;;;20.90;62.70;;;;;;4954848;28;20047;-58
2022/10/11 00:21:04;;;;;;;0.30;0.30;;;20.90;62.70;;;;;;4953944;28;20395;-60
2022/10/11 00:23:30;;;;;;;0.20;0.20;;;20.90;62.70;;;;;;4954398;28;20417;-47
2022/10/11 00:25:59;;;;;;;0.30;0.30;;;20.90;63.40;;;;;;4954405;28;20047;-53
2022/10/11 00:28:24;;;;;;;0.50;0.20;;;20.90;62.50;;;;;;4957809;28;20044;-56
2022/10/11 00:30:50;;;;;;;0.85;0.22;;;20.90;62.50;;;;;;4957077;28;20054;-52
2022/10/11 00:33:16;;;;;;;0.32;0.25;;;20.90;62.60;;;;;;4959623;28;20038;-52
2022/10/11 00:35:41;;;;;;;0.20;0.20;;;20.80;62.60;;;;;;4954911;28;20517;-52
2022/10/11 00:38:07;;;;;;;0.35;0.30;;;20.90;62.60;;;;;;4959702;28;20048;-48
2022/10/11 00:40:32;;;;;;;0.30;0.30;;;20.90;62.70;;;;;;4958504;28;20050;-39
2022/10/11 00:42:58;;;;;;;0.30;0.30;;;20.80;63.30;;;;;;4957932;28;20525;-51
2022/10/11 00:45:26;;;;;;;0.50;0.43;;;20.90;62.60;;;;;;4954666;28;20077;-51
2022/10/11 00:47:53;;;;;;;0.25;0.20;;;20.90;62.40;;;;;;4954957;28;20446;-45
2022/10/11 00:50:19;;;;;;;0.68;0.28;;;20.90;62.50;;;;;;4953114;28;20502;-39
2022/10/11 00:52:46;;;;;;;0.30;0.20;;;20.90;62.40;;;;;;4956983;28;20043;-37
2022/10/11 00:55:13;;;;;;;0.20;0.20;;;20.90;62.50;;;;;;4937403;28;20094;-35
2022/10/11 00:57:40;;;;;;;0.25;0.25;;;20.90;62.50;;;;;;4951318;28;20130;-37
2022/10/11 01:00:07;;;;;;;0.32;0.32;;;20.90;62.60;;;;;;4974508;28;20195;-46
2022/10/11 01:02:32;;;;;;;0.40;0.40;;;20.90;62.60;;;;;;4959829;28;20051;-47
2022/10/11 01:04:58;;;;;;;0.40;0.40;;;20.90;62.60;;;;;;4954908;28;20054;-62
2022/10/11 01:07:26;;;;;;;0.20;0.20;;;20.90;62.60;;;;;;4935963;28;20060;-62
2022/10/11 01:09:52;;;;;;;0.30;0.20;;;20.90;62.60;;;;;;4967121;28;20058;-50
2022/10/11 01:12:19;;;;;;;0.13;0.10;;;20.90;62.60;;;;;;4958294;28;20035;-52
2022/10/11 01:14:51;;;;;;;0.50;0.30;;;20.90;62.60;;;;;;4958295;28;20035;-51
2022/10/11 01:17:32;;;;;;;0.50;0.40;;;20.90;62.60;;;;;;4948979;28;20039;-45
2022/10/11 01:20:34;;;;;;;0.38;0.28;;;20.90;62.80;;;;;;4952482;28;20050;-54
2022/10/11 01:23:39;;;;;;;0.13;0.13;;;20.90;62.70;;;;;;4954962;28;20053;-44
2022/10/11 01:26:22;;;;;;;0.20;0.20;;;20.90;62.70;;;;;;4950919;28;20047;-50
2022/10/11 01:28:50;;;;;;;0.22;0.20;;;21.00;62.70;;;;;;4951258;28;20043;-47
2022/10/11 01:31:15;;;;;;;1.48;0.20;;;20.90;62.60;;;;;;4955825;28;20047;-56
2022/10/11 01:33:44;;;;;;;0.40;0.40;;;20.90;62.80;;;;;;4954765;28;20180;-39
2022/10/11 01:36:26;;;;;;;0.47;0.47;;;20.90;62.70;;;;;;4968840;28;20058;-42
2022/10/11 01:39:03;;;;;;;0.30;0.30;;;20.80;62.70;;;;;;4957994;28;20038;-53
2022/10/11 01:41:45;;;;;;;0.43;0.38;;;20.80;63.00;;;;;;4960685;28;20045;-53
2022/10/11 01:44:10;;;;;;;0.35;0.30;;;20.80;63.10;;;;;;4942748;28;20039;-45
2022/10/11 01:46:36;;;;;;;0.30;0.30;;;20.90;62.90;;;;;;4968179;28;20098;-40
2022/10/11 01:49:02;;;;;;;0.20;0.20;;;20.90;63.70;;;;;;4969811;28;20413;-49
2022/10/11 01:51:53;;;;;;;0.15;0.10;;;20.90;62.90;;;;;;4957304;28;20054;-51
2022/10/11 01:54:27;;;;;;;0.30;0.20;;;20.80;62.70;;;;;;4970579;28;20055;-38
2022/10/11 01:57:20;;;;;;;0.38;0.30;;;20.80;63.00;;;;;;4950991;28;20055;-40
2022/10/11 01:59:56;;;;;;;0.32;0.30;;;20.80;62.90;;;;;;4953558;28;20533;-52
2022/10/11 02:02:51;;;;;;;0.30;0.30;;;20.80;63.10;;;;;;4952645;28;20122;-53
2022/10/11 02:05:44;;;;;;;0.20;0.20;;;20.80;63.00;;;;;;4963575;28;20533;-52
2022/10/11 02:08:31;;;;;;;0.20;0.20;;;20.80;62.80;;;;;;4949270;28;20071;-44
2022/10/11 02:11:01;;;;;;;0.30;0.30;;;20.80;62.80;;;;;;4955775;28;20125;-36
2022/10/11 02:13:32;;;;;;;0.30;0.20;;;20.80;62.90;;;;;;4948028;28;20050;-48
2022/10/11 02:15:59;;;;;;;0.32;0.20;;;20.80;62.80;;;;;;4935657;28;20045;-57
2022/10/11 02:18:27;;;;;;;0.30;0.30;;;20.80;63.00;;;;;;4968318;28;20473;-56
2022/10/11 02:20:52;;;;;;;0.20;0.20;;;20.70;62.90;;;;;;4983625;28;20055;-39
2022/10/11 02:23:21;;;;;;;0.20;0.20;;;20.80;63.00;;;;;;4936617;28;20044;-50
2022/10/11 02:25:47;;;;;;;0.10;0.10;;;20.80;62.90;;;;;;4936726;28;20042;-38
2022/10/11 02:28:27;;;;;;;0.20;0.20;;;20.80;62.80;;;;;;4950853;28;20050;-57
2022/10/11 02:30:53;;;;;;;0.32;0.20;;;20.70;62.90;;;;;;4967290;28;20105;-58
2022/10/11 02:33:25;;;;;;;0.30;0.30;;;20.70;63.10;;;;;;4957768;28;20421;-44
2022/10/11 02:35:55;;;;;;;0.28;0.25;;;20.70;62.90;;;;;;4947008;28;20129;-42
2022/10/11 02:38:25;;;;;;;0.20;0.20;;;20.80;62.80;;;;;;4954694;28;20047;-49
2022/10/11 02:40:55;;;;;;;0.20;0.20;;;20.70;62.90;;;;;;4951363;28;20385;-52
2022/10/11 02:43:38;;;;;;;0.20;0.20;;;20.70;62.90;;;;;;4968484;28;20076;-53
2022/10/11 02:46:04;;;;;;;0.30;0.10;;;20.70;62.90;;;;;;4941948;28;20417;-52
2022/10/11 02:48:30;;;;;;;0.20;0.20;;;20.70;62.90;;;;;;4934277;28;20047;-48
2022/10/11 02:50:56;;;;;;;0.10;0.10;;;20.70;63.00;;;;;;4952862;28;20605;-53
2022/10/11 02:53:22;;;;;;;0.30;0.22;;;20.70;62.80;;;;;;4953455;28;20055;-59
2022/10/11 02:55:48;;;;;;;0.20;0.20;;;20.70;63.00;;;;;;4952841;28;20058;-54
2022/10/11 02:58:14;;;;;;;0.20;0.20;;;20.70;63.00;;;;;;4954030;28;20051;-48
2022/10/11 03:00:39;;;;;;;0.20;0.20;;;20.70;62.90;;;;;;4951380;28;20122;-45
2022/10/11 03:03:05;;;;;;;0.45;0.30;;;20.80;62.80;;;;;;4953273;28;21158;-48
2022/10/11 03:05:35;;;;;;;0.20;0.20;;;20.70;62.80;;;;;;4953874;28;20502;-47
2022/10/11 03:08:01;;;;;;;0.35;0.30;;;20.80;62.80;;;;;;4952559;28;20094;-42
2022/10/11 03:10:27;;;;;;;0.13;0.13;;;20.70;62.90;;;;;;4953603;28;20043;-57
2022/10/11 03:12:52;;;;;;;1.05;0.40;;;20.70;63.00;;;;;;4953300;28;20042;-47
2022/10/11 03:15:18;;;;;;;0.28;0.20;;;20.70;63.00;;;;;;4953717;28;20497;-59
2022/10/11 03:17:43;;;;;;;0.45;0.45;;;20.70;63.00;;;;;;4952083;28;20430;-59
2022/10/11 03:20:09;;;;;;;0.50;0.50;;;20.70;63.10;;;;;;4953920;28;20051;-46
2022/10/11 03:22:35;;;;;;;0.20;0.20;;;20.70;63.00;;;;;;4953821;28;20130;-47
2022/10/11 03:25:00;;;;;;;0.20;0.20;;;20.70;63.10;;;;;;4958044;28;20061;-40
2022/10/11 03:27:26;;;;;;;0.40;0.30;;;20.60;63.00;;;;;;4952141;28;20148;-52
2022/10/11 03:29:51;;;;;;;0.22;0.22;;;20.60;62.90;;;;;;4960970;28;20130;-44
2022/10/11 03:32:17;;;;;;;0.28;0.20;;;20.70;62.90;;;;;;4956186;28;20045;-43
2022/10/11 03:34:42;;;;;;;0.20;0.20;;;20.60;63.30;;;;;;4955937;28;20102;-48
2022/10/11 03:37:08;;;;;;;0.63;0.30;;;20.60;63.00;;;;;;4956687;28;20059;-56
2022/10/11 03:39:34;;;;;;;0.25;0.20;;;20.60;63.20;;;;;;4957287;28;20508;-57
2022/10/11 03:41:59;;;;;;;0.20;0.20;;;20.60;63.10;;;;;;4958080;28;20049;-51
2022/10/11 03:44:25;;;;;;;0.32;0.32;;;20.60;63.20;;;;;;4973292;28;20129;-51
2022/10/11 03:46:50;;;;;;;0.40;0.40;;;20.60;63.20;;;;;;4958405;28;20051;-48
2022/10/11 03:49:16;;;;;;;0.30;0.28;;;20.60;63.10;;;;;;4957731;28;20058;-44
2022/10/11 03:51:41;;;;;;;0.25;0.17;;;20.60;63.30;;;;;;4957542;28;20378;-37
2022/10/11 03:54:07;;;;;;;0.20;0.10;;;20.60;63.10;;;;;;4957263;28;20053;-53
2022/10/11 03:56:32;;;;;;;0.30;0.30;;;20.60;63.30;;;;;;4954419;28;20047;-44
2022/10/11 03:58:58;;;;;;;0.22;0.20;;;20.60;63.40;;;;;;4957331;28;20055;-51
2022/10/11 04:01:23;;;;;;;0.30;0.10;;;20.60;63.50;;;;;;4957972;28;20459;-49
2022/10/11 04:03:49;;;;;;;1.55;0.25;;;20.60;63.50;;;;;;4957803;28;20533;-47
2022/10/11 04:06:15;;;;;;;0.20;0.20;;;20.50;64.30;;;;;;4954714;28;20047;-47
2022/10/11 04:08:40;;;;;;;0.17;0.17;;;20.60;63.60;;;;;;4953269;28;20046;-40
2022/10/11 04:11:06;;;;;;;0.10;0.10;;;20.60;64.30;;;;;;4954298;28;20126;-56
2022/10/11 04:13:31;;;;;;;0.30;0.30;;;20.50;63.50;;;;;;4953528;28;20125;-57
2022/10/11 04:15:57;;;;;;;0.20;0.20;;;20.60;63.40;;;;;;4952138;28;20186;-40
2022/10/11 04:18:22;;;;;;;0.30;0.10;;;20.60;63.50;;;;;;4951421;28;20131;-42
2022/10/11 04:20:48;;;;;;;0.20;0.10;;;20.60;63.40;;;;;;4954612;28;21607;-46
2022/10/11 04:23:13;;;;;;;0.20;0.20;;;20.50;63.50;;;;;;4949598;28;20051;-55
2022/10/11 04:25:40;;;;;;;0.35;0.35;;;20.60;63.60;;;;;;4953446;28;20078;-48
2022/10/11 04:28:07;;;;;;;0.30;0.30;;;20.50;63.20;;;;;;4954777;28;20082;-50
2022/10/11 04:30:33;;;;;;;0.10;0.00;;;20.60;63.50;;;;;;4954032;28;20047;-41
2022/10/11 04:32:58;;;;;;;0.28;0.10;;;20.60;63.40;;;;;;4951911;28;20051;-42
2022/10/11 04:35:24;;;;;;;0.43;0.30;;;20.50;63.60;;;;;;4953366;28;20050;-49
2022/10/11 04:37:49;;;;;;;0.20;0.10;;;20.50;63.60;;;;;;4952862;28;20089;-49
2022/10/11 04:40:15;;;;;;;0.43;0.20;;;20.50;63.60;;;;;;4954521;28;20480;-46
2022/10/11 04:42:40;;;;;;;0.20;0.20;;;20.50;63.50;;;;;;4956637;28;20042;-42
2022/10/11 04:45:08;;;;;;;0.32;0.30;;;20.50;63.70;;;;;;4955716;28;20410;-41
2022/10/11 04:47:33;;;;;;;0.10;0.10;;;20.50;63.60;;;;;;4954061;28;20062;-40
2022/10/11 04:49:59;;;;;;;0.20;0.20;;;20.50;63.70;;;;;;4956911;28;20143;-37
2022/10/11 04:52:25;;;;;;;0.20;0.20;;;20.50;63.70;;;;;;4955219;28;20040;-42
2022/10/11 04:54:50;;;;;;;0.20;0.10;;;20.50;63.60;;;;;;4952350;28;20066;-43
2022/10/11 04:57:16;;;;;;;0.30;0.20;;;20.50;63.60;;;;;;4953245;28;20054;-54
2022/10/11 04:59:41;;;;;;;0.47;0.28;;;20.50;63.60;;;;;;4956164;28;20047;-48
2022/10/11 05:02:07;;;;;;;0.32;0.20;;;20.50;63.60;;;;;;4954692;28;20043;-45
2022/10/11 05:04:32;;;;;;;0.30;0.30;;;20.50;63.40;;;;;;4952556;28;20070;-44
2022/10/11 05:06:58;;;;;;;0.10;0.10;;;20.50;63.60;;;;;;4951727;28;20078;-55
2022/10/11 05:09:23;;;;;;;0.30;0.20;;;20.50;63.60;;;;;;4953548;28;20070;-49
2022/10/11 05:11:49;;;;;;;0.35;0.30;;;20.50;63.50;;;;;;4954336;28;20051;-45
2022/10/11 05:14:15;;;;;;;0.30;0.30;;;20.50;63.60;;;;;;4953431;28;20043;-49
2022/10/11 05:16:40;;;;;;;0.10;0.10;;;20.50;64.60;;;;;;4951002;28;20125;-42
2022/10/11 05:19:06;;;;;;;0.88;0.40;;;20.40;64.50;;;;;;4953733;28;20156;-42
2022/10/11 05:21:31;;;;;;;0.20;0.20;;;20.40;64.40;;;;;;4951170;28;20047;-37
2022/10/11 05:23:57;;;;;;;2.08;0.20;;;20.40;64.30;;;;;;4951608;28;20039;-51
2022/10/11 05:26:24;;;;;;;0.20;0.20;;;20.50;63.50;;;;;;4953092;28;20067;-59
2022/10/11 05:28:50;;;;;;;0.28;0.22;;;20.40;63.50;;;;;;4950727;28;20046;-50
2022/10/11 05:31:15;;;;;;;0.20;0.20;;;20.40;63.50;;;;;;4954794;28;20066;-57
2022/10/11 05:33:41;;;;;;;0.63;0.13;;;20.40;63.30;;;;;;4966995;28;20070;-37
2022/10/11 05:36:08;;;;;;;0.10;0.10;;;20.40;63.70;;;;;;4954939;28;20501;-40
2022/10/11 05:38:33;;;;;;;1.08;0.32;;;20.40;63.60;;;;;;4953899;28;20051;-48
2022/10/11 05:41:00;;;;;;;0.38;0.30;;;20.40;63.50;;;;;;4952342;28;20109;-45
2022/10/11 05:43:26;;;;;;;0.17;0.17;;;20.40;63.40;;;;;;4956988;28;20054;-44
2022/10/11 05:45:51;;;;;;;0.20;0.20;;;20.40;63.60;;;;;;4953509;28;20057;-52
2022/10/11 05:48:17;;;;;;;0.30;0.20;;;20.50;63.50;;;;;;4957220;28;20053;-47
2022/10/11 05:50:42;;;;;;;0.20;0.10;;;20.40;63.50;;;;;;4955767;28;20051;-60
2022/10/11 05:53:08;;;;;;;0.20;0.10;;;20.40;63.50;;;;;;4953633;28;20059;-42
2022/10/11 05:55:40;;;;;;;0.32;0.20;;;20.40;63.50;;;;;;4954063;28;20059;-43
2022/10/11 05:58:07;;;;;;;1.20;0.20;;;20.40;63.50;;;;;;4956396;28;20097;-46
2022/10/11 06:00:35;;;;;;;0.20;0.20;;;20.40;63.50;;;;;;4958311;28;20220;-45
2022/10/11 06:03:01;;;;;;;0.20;0.20;;;20.40;63.50;;;;;;4955829;28;20051;-38
2022/10/11 06:05:26;;;;;;;0.10;0.10;;;20.40;63.40;;;;;;4958486;28;20050;-51
2022/10/11 06:07:52;;;;;;;0.20;0.20;;;20.40;63.40;;;;;;4953683;28;20039;-42
2022/10/11 06:10:18;;;;;;;0.83;0.20;;;20.40;63.20;;;;;;4605323;28;10000939;-38
2022/10/11 06:12:43;;;;;;;0.30;0.25;;;20.40;63.20;;;;;;4946724;28;20039;-47
2022/10/11 06:15:10;;;;;;;0.52;0.30;;;20.40;63.00;;;;;;4951759;28;20533;-48
2022/10/11 06:17:36;;;;;;;0.10;0.10;;;20.30;63.20;;;;;;4947711;28;20043;-51
2022/10/11 06:20:02;;;;;;;0.30;0.30;;;20.30;64.20;;;;;;4948892;28;20074;-54
2022/10/11 06:22:28;;;;;;;0.20;0.20;;;20.30;63.60;;;;;;4947084;28;20506;-50
2022/10/11 06:24:53;;;;;;;0.50;0.20;;;20.40;63.40;;;;;;4951811;28;20441;-41
2022/10/11 06:27:19;;;;;;;0.57;0.30;;;20.30;63.50;;;;;;4952123;28;20133;-52
2022/10/11 06:29:44;;;;;;;0.22;0.20;;;20.30;63.60;;;;;;4949858;28;20051;-49
2022/10/11 06:32:12;;;;;;;0.22;0.13;;;20.30;63.60;;;;;;4948355;28;20666;-43
2022/10/11 06:34:37;;;;;;;0.50;0.30;;;20.40;63.70;;;;;;4953400;28;20075;-45
2022/10/11 06:37:03;;;;;;;0.30;0.10;;;20.30;63.60;;;;;;4949126;28;20103;-44
2022/10/11 06:39:28;;;;;;;0.38;0.38;;;20.40;63.60;;;;;;4949331;28;22065;-45
2022/10/11 06:41:54;;;;;;;0.20;0.20;;;20.30;63.70;;;;;;4950282;28;20054;-43
2022/10/11 06:44:20;;;;;;;0.10;0.10;;;20.20;63.80;;;;;;4947112;28;20134;-44
2022/10/11 06:46:45;;;;;;;0.17;0.15;;;20.30;63.80;;;;;;4949168;28;20075;-44
2022/10/11 06:49:11;;;;;;;0.10;0.10;;;20.30;63.60;;;;;;4950980;28;20179;-45
2022/10/11 06:51:36;;;;;;;0.30;0.20;;;20.20;64.00;;;;;;4949228;28;20093;-44
2022/10/11 06:54:02;;;;;;;0.30;0.10;;;20.20;63.90;;;;;;4949397;28;20048;-38
2022/10/11 06:56:28;;;;;;;0.52;0.30;;;20.40;63.80;;;;;;4950049;28;20058;-38
2022/10/11 06:58:55;;;;;;;0.40;0.30;;;21.00;62.20;;;;;;4950974;28;20074;-37
2022/10/11 07:01:22;;;;;;;0.50;0.10;;;21.20;61.40;;;;;;4953483;28;20500;-36
2022/10/11 07:03:48;;;;;;;0.20;0.10;;;21.20;61.20;;;;;;4953349;28;20130;-38
2022/10/11 07:06:16;;;;;;;0.60;0.30;;;21.30;60.70;;;;;;4950245;28;20060;-35
2022/10/11 07:08:42;;;;;;;0.10;0.10;;;21.40;60.50;;;;;;4985471;28;20047;-39
2022/10/11 07:11:12;;;;;;;0.60;0.10;;;21.40;60.30;;;;;;4950932;28;20057;-39
2022/10/11 07:13:38;;;;;;;0.30;0.13;;;21.40;60.10;;;;;;4956075;28;20043;-37
2022/10/11 07:16:05;;;;;;;0.20;0.15;;;21.30;60.30;;;;;;4953354;28;20031;-36
2022/10/11 07:18:31;;;;;;;0.10;0.10;;;21.30;60.50;;;;;;4960616;28;20043;-38
2022/10/11 07:20:56;;;;;;;0.20;0.20;;;21.40;60.30;;;;;;4955616;28;20061;-35
2022/10/11 07:23:22;;;;;;;1.55;0.10;;;21.40;60.30;;;;;;4956028;28;20158;-41
2022/10/11 07:25:48;;;;;;;0.35;0.35;;;21.40;60.20;;;;;;4956900;28;20047;-38
2022/10/11 07:28:14;;;;;;;1.55;0.15;;;21.30;60.40;;;;;;4957317;28;20065;-38
2022/10/11 07:30:40;;;;;;;0.10;0.10;;;21.30;60.40;;;;;;4952210;28;20426;-35
2022/10/11 07:33:06;;;;;;;1.02;0.10;;;21.30;60.20;;;;;;4954857;28;20155;-37
2022/10/11 07:35:33;;;;;;;1.90;0.20;;;21.40;60.10;;;;;;4952021;28;20110;-37
2022/10/11 07:37:59;;;;;;;1.00;0.40;;;21.40;60.00;;;;;;4954870;28;20042;-37
2022/10/11 07:40:25;;;;;;;0.22;0.20;;;21.50;60.10;;;;;;4956914;28;20493;-38
2022/10/11 07:42:50;;;;;;;0.20;0.10;;;21.40;60.20;;;;;;4956543;28;20058;-39
2022/10/11 07:45:16;;;;;;;0.20;0.10;;;21.30;60.30;;;;;;4955191;28;20455;-38
2022/10/11 07:47:45;;;;;;;0.20;0.20;;;21.40;60.30;;;;;;4961529;28;20102;-37
2022/10/11 07:50:11;;;;;;;0.20;0.20;;;21.30;60.40;;;;;;4956354;28;20039;-35
2022/10/11 07:52:37;;;;;;;0.20;0.10;;;21.30;61.30;;;;;;4955183;28;20172;-38
2022/10/11 07:55:02;;;;;;;0.20;0.10;;;21.30;61.40;;;;;;4958194;28;20530;-37
2022/10/11 07:57:28;;;;;;;0.20;0.20;;;21.30;60.50;;;;;;4957824;28;20050;-37
2022/10/11 07:59:53;;;;;;;0.25;0.20;;;21.40;60.40;;;;;;4955925;28;20083;-36
2022/10/11 08:02:19;;;;;;;0.32;0.32;;;21.40;60.30;;;;;;4956223;28;20051;-38
2022/10/11 08:04:45;;;;;;;0.60;0.22;;;21.40;60.20;;;;;;4953974;28;20098;-37
2022/10/11 08:07:10;;;;;;;0.15;0.13;;;21.40;60.10;;;;;;4959081;28;20040;-37
2022/10/11 08:09:36;;;;;;;0.17;0.15;;;21.40;60.20;;;;;;4958574;28;20050;-37
2022/10/11 08:12:01;;;;;;;0.35;0.35;;;21.50;60.80;;;;;;4953620;28;20487;-36
2022/10/11 08:14:27;;;;;;;0.32;0.17;;;21.50;60.00;;;;;;4957704;28;20043;-36
2022/10/11 08:16:52;;;;;;;0.17;0.13;;;21.50;59.90;;;;;;4955926;28;20039;-38
2022/10/11 08:19:18;;;;;;;0.28;0.20;;;21.60;59.90;;;;;;4956531;28;20533;-37
2022/10/11 08:21:43;;;;;;;2.38;0.35;;;21.60;59.80;;;;;;4958558;28;20070;-38
2022/10/11 08:24:09;;;;;;;0.20;0.20;;;21.50;59.70;;;;;;4956018;28;20047;-37
2022/10/11 08:26:35;;;;;;;0.52;0.38;;;21.60;59.60;;;;;;4957722;28;20075;-38
2022/10/11 08:29:04;;;;;;;0.13;0.13;;;21.50;60.00;;;;;;4959986;28;20494;-36
2022/10/11 08:31:29;;;;;;;0.20;0.20;;;21.40;59.90;;;;;;4959710;28;20051;-37
2022/10/11 08:33:55;;;;;;;0.20;0.20;;;21.50;59.80;;;;;;4959228;28;20050;-36
2022/10/11 08:36:20;;;;;;;0.75;0.20;;;21.50;60.40;;;;;;4956715;28;20051;-36
2022/10/11 08:38:46;;;;;;;0.20;0.17;;;21.50;59.50;;;;;;4957183;28;20038;-37
2022/10/11 08:41:39;;;;;;;0.50;0.30;;;21.50;59.60;;;;;;4953771;28;20054;-37
2022/10/11 08:44:25;;;;;;;0.95;0.15;;;21.50;59.70;;;;;;4954362;28;20046;-37
2022/10/11 08:46:56;;;;;;;0.10;0.10;;;21.50;59.60;;;;;;4952034;28;20920;-38
2022/10/11 08:49:23;;;;;;;0.10;0.10;;;21.50;59.60;;;;;;4954981;28;20043;-37
2022/10/11 08:51:58;;;;;;;0.32;0.30;;;21.50;60.20;;;;;;4969695;28;20039;-38
2022/10/11 08:54:47;;;;;;;0.60;0.40;;;21.50;59.60;;;;;;4984754;28;20422;-37
2022/10/11 08:57:19;;;;;;;0.85;0.20;;;21.40;59.40;;;;;;4940055;28;20233;-38
2022/10/11 08:59:53;;;;;;;0.20;0.17;;;21.50;59.40;;;;;;4953922;28;20066;-36
2022/10/11 09:02:35;;;;;;;0.50;0.20;;;21.50;59.00;;;;;;4975120;28;20051;-37
2022/10/11 09:05:01;;;;;;;1.05;0.30;;;21.60;59.20;;;;;;4956124;28;20223;-37
2022/10/11 09:07:58;;;;;;;0.60;0.25;;;21.50;59.20;;;;;;4963908;28;20044;-33
2022/10/11 09:10:36;;;;;;;0.20;0.13;;;21.50;58.90;;;;;;4953331;28;20168;-37
2022/10/11 09:13:30;;;;;;;0.55;0.20;;;21.50;58.80;;;;;;4956272;28;20051;-34
2022/10/11 09:16:41;;;;;;;0.30;0.20;;;21.60;58.60;;;;;;4957705;28;20118;-38
2022/10/11 09:19:21;;;;;;;0.98;0.30;;;21.70;58.40;;;;;;4947977;28;20465;-37
2022/10/11 09:21:50;;;;;;;0.28;0.17;;;21.70;58.40;;;;;;4957819;28;20419;-38
2022/10/11 09:24:27;;;;;;;0.35;0.30;;;21.70;58.20;;;;;;4962725;28;20058;-37
2022/10/11 09:26:58;;;;;;;0.30;0.20;;;21.70;58.50;;;;;;4953643;28;20130;-37
2022/10/11 09:29:38;;;;;;;0.25;0.20;;;21.80;59.00;;;;;;4955913;28;20106;-36
2022/10/11 09:32:11;;;;;;;0.30;0.22;;;21.70;58.20;;;;;;4959181;28;20034;-32
2022/10/11 09:34:37;;;;;;;0.30;0.25;;;21.70;58.50;;;;;;4956629;28;20117;-36
2022/10/11 09:37:22;;;;;;;0.35;0.20;;;21.60;58.70;;;;;;4949997;28;20521;-37
2022/10/11 09:40:02;;;;;;;0.20;0.10;;;21.80;58.60;;;;;;4963676;28;20102;-36
2022/10/11 09:42:28;;;;;;;0.50;0.30;;;21.80;58.60;;;;;;4980974;28;20051;-35
2022/10/11 09:44:56;;;;;;;0.65;0.30;;;21.80;58.50;;;;;;4953643;28;20101;-38
2022/10/11 09:47:26;;;;;;;0.35;0.32;;;21.80;58.50;;;;;;4955684;28;20433;-37
2022/10/11 09:50:00;;;;;;;0.55;0.40;;;21.80;58.70;;;;;;4957219;28;20678;-36
2022/10/11 09:52:26;;;;;;;0.30;0.20;;;21.70;58.70;;;;;;4952356;28;20054;-35
2022/10/11 09:54:54;;;;;;;0.28;0.10;;;21.70;58.90;;;;;;4955938;28;20039;-39
2022/10/11 09:57:22;;;;;;;0.52;0.50;;;21.70;59.40;;;;;;4951740;28;20124;-36
2022/10/11 10:00:21;;;;;;;0.20;0.20;;;21.70;58.80;;;;;;4953111;28;20053;-35
2022/10/11 10:02:48;;;;;;;0.50;0.43;;;21.70;58.90;;;;;;4955905;28;20058;-38
2022/10/11 10:05:17;;;;;;;0.60;0.40;;;21.70;58.90;;;;;;4952691;28;20081;-36
2022/10/11 10:08:00;;;;;;;0.30;0.25;;;21.70;58.90;;;;;;4953835;28;20046;-38
2022/10/11 10:10:38;;;;;;;1.45;0.63;;;21.70;59.00;;;;;;4955477;28;20141;-35
2022/10/11 10:13:05;;;;;;;0.57;0.30;;;21.70;59.00;;;;;;4974177;28;20039;-38
2022/10/11 10:15:35;;;;;;;0.40;0.30;;;21.70;58.90;;;;;;4971355;28;20039;-35
2022/10/11 10:18:00;;;;;;;0.88;0.35;;;21.70;58.90;;;;;;4951787;28;20051;-38
2022/10/11 10:20:32;;;;;;;1.35;0.20;;;21.80;59.00;;;;;;4953900;28;20050;-36
2022/10/11 10:23:22;;;;;;;0.30;0.30;;;21.80;59.00;;;;;;4968334;28;20039;-38
2022/10/11 10:25:51;;;;;;;0.40;0.30;;;21.70;58.90;;;;;;4948490;28;20201;-36
2022/10/11 10:28:21;;;;;;;0.82;0.43;;;21.80;59.00;;;;;;4954828;28;20548;-37
2022/10/11 10:30:56;;;;;;;0.10;0.10;;;21.80;59.00;;;;;;4955472;28;20565;-35
2022/10/11 10:33:23;;;;;;;0.32;0.20;;;21.80;59.00;;;;;;4955603;28;20035;-36
2022/10/11 10:36:15;;;;;;;0.63;0.40;;;21.80;59.10;;;;;;4953624;28;20179;-38
2022/10/11 10:38:49;;;;;;;0.90;0.20;;;21.80;59.00;;;;;;4945342;28;20050;-37
2022/10/11 10:41:15;;;;;;;0.30;0.30;;;21.80;59.00;;;;;;4934740;28;20055;-36
2022/10/11 10:43:42;;;;;;;0.47;0.35;;;21.80;59.00;;;;;;4953413;28;20134;-37
2022/10/11 10:46:39;;;;;;;0.52;0.25;;;21.80;59.00;;;;;;4951127;28;20137;-36
2022/10/11 10:49:11;;;;;;;0.20;0.20;;;21.80;59.00;;;;;;4970280;28;20522;-38
2022/10/11 10:52:14;;;;;;;7.22;0.30;;;21.80;59.10;;;;;;4951655;28;20494;-37
2022/10/11 10:54:52;;;;;;;0.20;0.20;;;21.90;59.00;;;;;;4957661;28;20073;-37
2022/10/11 10:57:51;;;;;;;0.30;0.20;;;21.80;59.00;;;;;;4947242;28;20129;-37
2022/10/11 11:00:18;;;;;;;0.10;0.10;;;21.90;59.00;;;;;;4952169;28;20055;-37
2022/10/11 11:03:04;;;;;;;0.20;0.20;;;21.90;59.10;;;;;;4952196;28;20043;-35
2022/10/11 11:06:02;;;;;;;0.20;0.20;;;21.90;59.00;;;;;;4951362;28;20039;-38
2022/10/11 11:08:37;;;;;;;0.82;0.20;;;21.90;59.10;;;;;;4951311;28;20215;-38
2022/10/11 11:11:23;;;;;;;0.22;0.22;;;21.80;59.10;;;;;;4955935;28;20039;-37
2022/10/11 11:13:55;;;;;;;0.30;0.30;;;21.80;59.10;;;;;;4951467;28;20138;-38
2022/10/11 11:16:29;;;;;;;0.13;0.13;;;21.80;59.10;;;;;;4968766;28;20051;-37
2022/10/11 11:19:27;;;;;;;0.20;0.20;;;21.90;59.20;;;;;;4957325;28;20047;-37
2022/10/11 11:22:05;;;;;;;0.20;0.20;;;21.80;59.20;;;;;;4969264;28;20702;-38
2022/10/11 11:24:36;;;;;;;0.45;0.30;;;21.80;59.10;;;;;;4953301;28;20055;-37
2022/10/11 11:27:14;;;;;;;0.20;0.20;;;21.90;59.20;;;;;;4953614;28;20038;-37
2022/10/11 11:29:42;;;;;;;0.60;0.22;;;21.90;59.30;;;;;;4938399;28;20102;-38
2022/10/11 11:32:07;;;;;;;0.13;0.13;;;21.90;59.30;;;;;;4955500;28;20047;-38
2022/10/11 11:34:41;;;;;;;0.47;0.22;;;21.90;59.30;;;;;;4951777;28;20046;-37
2022/10/11 11:37:25;;;;;;;1.65;0.20;;;21.90;59.30;;;;;;4951203;28;20047;-40
2022/10/11 11:39:56;;;;;;;0.10;0.10;;;21.90;59.20;;;;;;4936313;28;20055;-36
2022/10/11 11:42:50;;;;;;;0.40;0.30;;;21.90;59.20;;;;;;4935954;28;20055;-36
2022/10/11 11:45:23;;;;;;;0.20;0.20;;;21.90;59.30;;;;;;4940035;28;20115;-34
2022/10/11 11:48:11;;;;;;;0.40;0.20;;;21.90;59.20;;;;;;4941016;28;20039;-34
2022/10/11 11:50:40;;;;;;;0.20;0.20;;;22.00;59.20;;;;;;4946690;28;20045;-38
2022/10/11 11:53:12;;;;;;;0.60;0.30;;;22.00;59.20;;;;;;4936818;28;20545;-38
2022/10/11 11:55:42;;;;;;;0.22;0.20;;;22.00;59.20;;;;;;4967464;28;20078;-36
2022/10/11 11:58:26;;;;;;;0.10;0.10;;;22.00;59.30;;;;;;4954538;28;20051;-38
2022/10/11 12:01:26;;;;;;;0.20;0.15;;;22.00;59.30;;;;;;4955841;28;20052;-39
2022/10/11 12:03:58;;;;;;;0.85;0.20;;;22.00;59.20;;;;;;4936699;28;20186;-38
2022/10/11 12:06:31;;;;;;;0.40;0.20;;;22.00;59.60;;;;;;4965278;28;20055;-36
2022/10/11 12:09:00;;;;;;;0.30;0.20;;;22.00;59.50;;;;;;4943569;28;20047;-36
2022/10/11 12:11:29;;;;;;;0.30;0.30;;;22.00;59.40;;;;;;4960662;28;20051;-38
2022/10/11 12:13:54;;;;;;;0.55;0.30;;;22.10;59.40;;;;;;4968634;28;20047;-38
2022/10/11 12:16:20;;;;;;;0.82;0.30;;;22.10;59.40;;;;;;4952358;28;20066;-34
2022/10/11 12:18:55;;;;;;;0.47;0.40;;;22.00;59.60;;;;;;4972968;28;20541;-37
2022/10/11 12:21:39;;;;;;;0.25;0.10;;;22.10;59.60;;;;;;4972140;28;20043;-36
2022/10/11 12:24:14;;;;;;;1.02;0.32;;;22.10;59.40;;;;;;4966228;28;20051;-36
2022/10/11 12:26:44;;;;;;;0.93;0.60;;;22.10;59.40;;;;;;4950417;28;20143;-35
2022/10/11 12:29:17;;;;;;;0.20;0.20;;;22.10;59.50;;;;;;4953451;28;20098;-37
2022/10/11 12:32:03;;;;;;;0.52;0.40;;;22.10;59.70;;;;;;4954685;28;20052;-20
2022/10/11 12:34:39;;;;;;;0.30;0.25;;;22.10;59.60;;;;;;4953817;28;20153;-21
2022/10/11 12:37:18;;;;;;;0.30;0.30;;;22.10;59.70;;;;;;4955078;28;20047;-21
2022/10/11 12:39:49;;;;;;;0.35;0.17;;;22.20;59.60;;;;;;4951662;28;20065;-20
2022/10/11 12:42:25;;;;;;;0.68;0.38;;;22.20;59.60;;;;;;4947751;28;20266;-21
2022/10/11 12:45:12;;;;;;;0.30;0.30;;;22.20;60.30;;;;;;4981135;28;20533;-20
2022/10/11 12:47:41;;;;;;;1.13;0.28;;;22.20;59.60;;;;;;4951333;28;20040;-21
2022/10/11 12:50:14;;;;;;;0.93;0.40;;;22.20;59.70;;;;;;4952814;28;20071;-20
2022/10/11 12:52:59;;;;;;;0.50;0.40;;;22.30;59.60;;;;;;4982776;28;20093;-20
2022/10/11 12:55:39;;;;;;;0.40;0.30;;;22.30;59.40;;;;;;4939026;28;20054;-20
2022/10/11 12:58:24;;;;;;;1.90;0.45;;;22.30;59.20;;;;;;4952442;28;20032;-21
2022/10/11 13:00:50;;;;;;;0.38;0.20;;;22.40;59.10;;;;;;4956470;28;20127;-20
2022/10/11 13:03:38;;;;;;;0.80;0.65;;;22.40;58.90;;;;;;4954593;28;20506;-27